Flight Track Log - Related Links

Times and Time Zones

All times are in EDT time to prevent confusion due to time zone crossing. See the N646BD flight status page for this flight to view local times or setup timezone preferences in your user account.

Time Position Orientation Groundspeed Altitude Reporting Facility
EDT Latitude Longitude Course Direction KTS MPH feet Rate Location/Type
Wed 09:46:01 AM 34.0500 -84.6167 22° Northeast 130 150 2,800  Level Atlanta TRACON
Wed 09:46:55 AM 34.0833 -84.6000 22° Northeast 155 178 3,200 474 Climbing Atlanta TRACON
Wed 09:47:55 AM 34.1167 -84.5833 22° Northeast 160 184 3,700 536 Climbing Atlanta TRACON
Wed 09:48:47 AM 34.1500 -84.5608 29° Northeast 164 189 4,200 643 Climbing Atlanta Center
Wed 09:49:47 AM 34.1753 -84.5208 53° Northeast 158 182 4,900 650 Climbing Atlanta Center
Wed 09:50:47 AM 34.1942 -84.4733 64° Northeast 147 169 5,500 850 Climbing Atlanta Center
Wed 09:51:47 AM 34.2089 -84.4306 67° East 147 169 6,600 950 Climbing Atlanta Center
Wed 09:52:47 AM 34.2278 -84.3856 63° Northeast 142 163 7,400 800 Climbing Atlanta Center
Wed 09:53:47 AM 34.2592 -84.3581 36° Northeast 137 158 8,200 700 Climbing Atlanta Center
Wed 09:54:47 AM 34.3031 -84.3481 11° North 130 150 8,800 650 Climbing Atlanta Center
Wed 09:55:47 AM 34.3450 -84.3331 16° North 142 163 9,500 700 Climbing Atlanta Center
Wed 09:56:47 AM 34.3867 -84.3233 11° North 153 176 10,200 750 Climbing Atlanta Center
Wed 09:57:47 AM 34.4306 -84.3108 13° North 153 176 11,000 650 Climbing Atlanta Center
Wed 09:58:47 AM 34.4744 -84.3008 11° North 159 183 11,500 500 Climbing Atlanta Center
Wed 09:59:47 AM 34.5203 -84.2883 13° North 159 183 12,000 500 Climbing Atlanta Center
Wed 10:00:47 AM 34.5664 -84.2733 15° North 164 189 12,500 450 Climbing Atlanta Center
Wed 10:01:47 AM 34.6142 -84.2583 14° North 164 189 12,900 450 Climbing Atlanta Center
Wed 10:02:47 AM 34.6622 -84.2483 10° North 164 189 13,400 500 Climbing Atlanta Center
Wed 10:03:47 AM 34.7103 -84.2333 14° North 164 189 13,900 500 Climbing Atlanta Center
Wed 10:04:47 AM 34.7564 -84.2208 13° North 164 189 14,400 450 Climbing Atlanta Center
Wed 10:05:47 AM 34.8022 -84.2083 13° North 164 189 14,800 250 Climbing Atlanta Center
Wed 10:06:47 AM 34.8503 -84.1956 12° North 164 189 14,900 50 Climbing Atlanta Center
Wed 10:07:47 AM 34.9025 -84.1806 13° North 169 194 14,900  Level Atlanta Center
Wed 10:08:47 AM 34.9525 -84.1681 12° North 179 206 14,900  Level Atlanta Center
Wed 10:09:47 AM 35.0025 -84.1528 14° North 179 206 14,900  Level Atlanta Center
Wed 10:10:47 AM 35.0547 -84.1403 11° North 179 206 14,900  Level Atlanta Center
Wed 10:11:47 AM 35.1069 -84.1250 13° North 179 206 14,900  Level Atlanta Center
Wed 10:12:47 AM 35.1569 -84.1100 14° North 179 206 14,900 50 Level Atlanta Center
Wed 10:13:47 AM 35.2072 -84.0947 14° North 179 206 15,000  Climbing Atlanta Center
Wed 10:14:47 AM 35.2592 -84.0819 11° North 179 206 14,900 -50 Descending Atlanta Center
Wed 10:15:47 AM 35.3114 -84.0667 13° North 184 212 14,900 50 Level Atlanta Center
Wed 10:16:47 AM 35.3614 -84.0514 14° North 184 212 15,000 50 Climbing Atlanta Center
Wed 10:17:47 AM 35.4158 -84.0361 13° North 184 212 15,000 -50 Level Atlanta Center
Wed 10:18:47 AM 35.4681 -84.0233 11° North 184 212 14,900 -50 Descending Atlanta Center
Wed 10:19:47 AM 35.5200 -84.0056 16° North 184 212 14,900  Level Atlanta Center
Wed 10:20:47 AM 35.5722 -83.9928 11° North 184 212 14,900  Level Atlanta Center
Wed 10:21:47 AM 35.6244 -83.9775 13° North 184 212 14,900  Level Atlanta Center
Wed 10:22:47 AM 35.6764 -83.9647 11° North 183 211 14,900  Level Atlanta Center
Wed 10:23:47 AM 35.7308 -83.9492 13° North 183 211 14,900  Level Atlanta Center
Wed 10:24:47 AM 35.7828 -83.9339 13° North 183 211 14,900 50 Level Atlanta Center
Wed 10:25:47 AM 35.8350 -83.9183 14° North 183 211 15,000 50 Climbing Atlanta Center
Wed 10:26:47 AM 35.8892 -83.9031 13° North 183 211 15,000  Level Atlanta Center
Wed 10:27:47 AM 35.9433 -83.8822 17° North 188 216 15,000 -50 Level Atlanta Center
Wed 10:28:47 AM 35.9978 -83.8592 19° North 194 223 14,900  Descending Atlanta Center
Wed 10:29:47 AM 36.0519 -83.8358 19° North 194 223 15,000 50 Climbing Atlanta Center
Wed 10:30:47 AM 36.1039 -83.8153 18° North 199 229 15,000  Level Atlanta Center
Wed 10:31:47 AM 36.1581 -83.7919 19° North 199 229 15,000 -50 Level Atlanta Center
Wed 10:32:47 AM 36.2122 -83.7711 17° North 199 229 14,900  Descending Atlanta Center
Wed 10:33:18 AM 36.2314 -83.7617 22° Northeast 202 232 15,000  Climbing Indianapolis Center
Wed 10:34:20 AM 36.2939 -83.7353 19° North 201 231 14,900  Descending Indianapolis Center
Wed 10:35:22 AM 36.3447 -83.7133 19° North 198 228 15,000 48 Climbing Indianapolis Center
Wed 10:36:24 AM 36.3947 -83.6914 19° North 195 224 15,000  Level Indianapolis Center
Wed 10:37:25 AM 36.4453 -83.6694 19° North 194 223 15,000  Level Indianapolis Center
Wed 10:38:27 AM 36.4964 -83.6475 19° North 194 223 15,000  Level Indianapolis Center
Wed 10:39:29 AM 36.5547 -83.6225 19° North 194 223 15,000  Level Indianapolis Center
Wed 10:40:31 AM 36.6056 -83.6011 19° North 194 223 15,000  Level Indianapolis Center
Wed 10:41:33 AM 36.6572 -83.5800 18° North 194 223 15,000  Level Indianapolis Center
Wed 10:42:34 AM 36.7086 -83.5569 20° North 194 223 15,000  Level Indianapolis Center
Wed 10:43:36 AM 36.7594 -83.5350 19° North 194 223 15,000  Level Indianapolis Center
Wed 10:44:38 AM 36.8111 -83.5136 18° North 194 223 15,000  Level Indianapolis Center
Wed 10:45:40 AM 36.8625 -83.4928 18° North 194 223 15,000  Level Indianapolis Center
Wed 10:46:42 AM 36.9217 -83.4661 20° North 194 223 15,000 -49 Level Indianapolis Center
Wed 10:47:43 AM 36.9739 -83.4444 18° North 194 223 14,900 -49 Descending Indianapolis Center
Wed 10:48:45 AM 37.0272 -83.4214 19° North 196 226 14,900  Level Indianapolis Center
Wed 10:49:47 AM 37.0786 -83.3983 20° North 196 226 14,900  Level Indianapolis Center
Wed 10:50:49 AM 37.1308 -83.3769 18° North 196 226 14,900  Level Indianapolis Center
Wed 10:51:51 AM 37.1831 -83.3539 19° North 196 226 14,900  Level Indianapolis Center
Wed 10:52:53 AM 37.2364 -83.3325 18° North 197 227 14,900  Level Indianapolis Center
Wed 10:53:54 AM 37.2969 -83.3053 20° North 197 227 14,900  Level Indianapolis Center
Wed 10:54:56 AM 37.3497 -83.2839 18° North 197 227 14,900  Level Indianapolis Center
Wed 10:55:58 AM 37.4022 -83.2606 19° North 197 227 14,900  Level Indianapolis Center
Wed 10:57:00 AM 37.4536 -83.2381 19° North 197 227 14,900  Level Indianapolis Center
Wed 10:58:01 AM 37.5064 -83.2156 19° North 198 228 14,900  Level Indianapolis Center
Wed 10:59:03 AM 37.5578 -83.1933 19° North 197 227 14,900  Level Indianapolis Center
Wed 11:00:05 AM 37.6111 -83.1700 19° North 198 228 14,900  Level Indianapolis Center
Wed 11:01:06 AM 37.6719 -83.1422 20° North 198 228 14,900  Level Indianapolis Center
Wed 11:02:08 AM 37.7239 -83.1192 19° North 198 228 14,900  Level Indianapolis Center
Wed 11:03:10 AM 37.7767 -83.0969 18° North 198 228 14,900  Level Indianapolis Center
Wed 11:04:11 AM 37.8286 -83.0739 19° North 198 228 14,900  Level Indianapolis Center
Wed 11:05:13 AM 37.8822 -83.0508 19° North 198 228 14,900  Level Indianapolis Center
Wed 11:06:15 AM 37.9347 -83.0272 20° North 198 228 14,900  Level Indianapolis Center
Wed 11:07:16 AM 37.9869 -83.0031 20° North 198 228 14,900  Level Indianapolis Center
Wed 11:08:18 AM 38.0492 -82.9767 18° North 199 229 14,900  Level Indianapolis Center
Wed 11:09:20 AM 38.1022 -82.9544 18° North 200 230 14,900  Level Indianapolis Center
Wed 11:10:21 AM 38.1550 -82.9297 20° North 200 230 14,900  Level Indianapolis Center
Wed 11:11:23 AM 38.2081 -82.9061 19° North 201 231 14,900  Level Indianapolis Center
Wed 11:12:24 AM 38.2619 -82.8822 19° North 201 231 14,900  Level Indianapolis Center
Wed 11:13:26 AM 38.3156 -82.8586 19° North 201 231 14,900  Level Indianapolis Center
Wed 11:14:27 AM 38.3694 -82.8353 19° North 201 231 14,900  Level Indianapolis Center
Wed 11:15:29 AM 38.4231 -82.8117 19° North 202 232 14,900  Level Indianapolis Center
Wed 11:16:30 AM 38.4861 -82.7822 20° North 202 232 14,900  Level Indianapolis Center
Wed 11:17:32 AM 38.5397 -82.7586 19° North 203 234 14,900  Level Indianapolis Center
Wed 11:18:33 AM 38.5933 -82.7358 18° North 203 234 14,900  Level Indianapolis Center
Wed 11:19:35 AM 38.6478 -82.7106 20° North 203 234 14,900 49 Level Indianapolis Center
Wed 11:20:36 AM 38.7083 -82.6844 19° North 204 235 15,000 49 Climbing Indianapolis Center
Wed 11:21:38 AM 38.7639 -82.6578 21° North 207 238 15,000 -49 Level Indianapolis Center
Wed 11:22:39 AM 38.8200 -82.6342 18° North 209 241 14,900 -49 Descending Indianapolis Center
Wed 11:23:41 AM 38.8753 -82.6081 20° North 209 241 14,900  Level Indianapolis Center
Wed 11:24:42 AM 38.9322 -82.5833 19° North 211 243 14,900  Level Indianapolis Center
Wed 11:25:44 AM 38.9889 -82.5575 20° North 215 247 14,900  Level Indianapolis Center
Wed 11:26:45 AM 39.0456 -82.5314 20° North 215 247 14,900  Level Indianapolis Center
Wed 11:27:47 AM 39.1011 -82.5064 19° North 215 247 14,900 49 Level Indianapolis Center
Wed 11:28:48 AM 39.1578 -82.4814 19° North 215 247 15,000  Climbing Indianapolis Center
Wed 11:29:49 AM 39.2144 -82.4550 20° North 215 247 14,900 -49 Descending Indianapolis Center
Wed 11:30:51 AM 39.2719 -82.4294 19° North 215 247 14,900  Level Indianapolis Center
Wed 11:31:52 AM 39.3400 -82.3978 20° North 215 247 14,900  Level Indianapolis Center
Wed 11:32:54 AM 39.3972 -82.3722 19° North 215 247 14,900  Level Indianapolis Center
Wed 11:33:55 AM 39.4439 -82.3242 38° Northeast 221 254 14,900  Level Indianapolis Center
Wed 11:34:57 AM 39.4897 -82.2783 38° Northeast 216 249 14,900  Level Indianapolis Center
Wed 11:35:58 AM 39.5361 -82.2322 37° Northeast 214 246 14,900  Level Indianapolis Center
Wed 11:37:00 AM 39.5847 -82.1894 34° Northeast 214 246 14,900 49 Level Indianapolis Center
Wed 11:38:01 AM 39.6381 -82.1692 16° North 207 238 15,000  Climbing Indianapolis Center
Wed 11:39:02 AM 39.7033 -82.1397 19° North 206 237 14,900 -49 Descending Indianapolis Center
Wed 11:40:04 AM 39.7583 -82.1153 19° North 207 238 14,900  Level Indianapolis Center
Wed 11:41:05 AM 39.8125 -82.0908 19° North 208 239 14,900  Level Indianapolis Center
Wed 11:43:04 AM 39.9208 -82.0442 18° North 204 235 14,900  Level Cleveland Center
Wed 11:44:09 AM 39.9733 -82.0203 19° North 205 236 14,900 47 Level Indianapolis Center
Wed 11:45:11 AM 40.0286 -81.9958 19° North 208 239 15,000 49 Climbing Indianapolis Center
Wed 11:46:12 AM 40.0828 -81.9719 19° North 207 238 15,000 -49 Level Indianapolis Center
Wed 11:47:13 AM 40.1486 -81.9417 19° North 208 239 14,900 -49 Descending Indianapolis Center
Wed 11:48:15 AM 40.2028 -81.9181 18° North 207 238 14,900  Level Indianapolis Center
Wed 11:49:16 AM 40.2556 -81.8956 18° North 208 239 14,900 49 Level Indianapolis Center
Wed 11:50:17 AM 40.3125 -81.8683 20° North 208 239 15,000  Climbing Cleveland Center
Wed 11:51:19 AM 40.3658 -81.8439 19° North 208 239 14,900 -48 Descending Cleveland Center
Wed 11:52:21 AM 40.4203 -81.8206 18° North 208 239 14,900  Level Cleveland Center
Wed 11:53:23 AM 40.4828 -81.7919 19° North 204 235 14,900 48 Level Cleveland Center
Wed 11:54:25 AM 40.5361 -81.7686 18° North 203 234 15,000  Climbing Cleveland Center
Wed 11:56:29 AM 40.6428 -81.7197 19° North 202 232 14,900 -32 Descending Cleveland Center
Wed 11:57:30 AM 40.6961 -81.6947 20° North 202 232 14,900  Level Cleveland Center
Wed 11:58:32 AM 40.7503 -81.6711 18° North 202 232 14,900  Level Cleveland Center
Wed 12:00:30 PM 40.8583 -81.6211 19° North 203 234 14,900  Level Indianapolis Center
Wed 12:01:38 PM 40.9217 -81.5922 19° North 203 234 14,900  Level Cleveland Center
Wed 12:02:40 PM 40.9747 -81.5689 18° North 203 234 14,900  Level Cleveland Center
Wed 12:03:42 PM 41.0278 -81.5433 20° North 202 232 14,900  Level Cleveland Center
Wed 12:04:44 PM 41.0803 -81.5194 19° North 202 232 14,900 48 Level Cleveland Center
Wed 12:05:46 PM 41.1386 -81.4928 19° North 202 232 15,000  Climbing Cleveland Center
Wed 12:06:48 PM 41.1900 -81.4694 19° North 200 230 14,900 -194 Descending Cleveland Center
Wed 12:07:50 PM 41.2419 -81.4453 19° North 199 229 14,600 -387 Descending Cleveland Center
Wed 12:08:52 PM 41.2983 -81.4189 19° North 211 243 14,100 -484 Descending Cleveland Center
Wed 12:09:54 PM 41.3608 -81.3900 19° North 219 252 13,600 -484 Descending Cleveland Center
Wed 12:10:56 PM 41.4206 -81.3625 19° North 225 259 13,100 -339 Descending Cleveland Center
Wed 12:11:58 PM 41.4781 -81.3347 20° North 220 253 12,900 -48 Descending Cleveland Center
Wed 12:13:00 PM 41.5331 -81.3100 19° North 212 244 13,000 48 Climbing Cleveland Center
Wed 12:14:02 PM 41.5964 -81.2803 19° North 209 241 13,000  Level Cleveland Center
Wed 12:15:04 PM 41.6528 -81.2542 19° North 208 239 13,000  Level Cleveland Center
Wed 12:16:06 PM 41.7078 -81.2283 19° North 208 239 13,000  Level Cleveland Center
Wed 12:17:08 PM 41.7625 -81.2019 20° North 208 239 13,000  Level Cleveland Center
Wed 12:18:10 PM 41.8167 -81.1764 19° North 208 239 13,000  Level Cleveland Center
Wed 12:19:13 PM 41.8717 -81.1506 19° North 208 239 13,000  Level Cleveland Center
Wed 12:20:15 PM 41.9247 -81.1258 19° North 204 235 13,000  Level Cleveland Center
Wed 12:21:17 PM 41.9864 -81.0972 19° North 200 230 13,000  Level Cleveland Center
Wed 12:22:19 PM 42.0386 -81.0714 20° North 200 230 13,000  Level Cleveland Center
Wed 12:23:21 PM 42.0906 -81.0458 20° North 198 228 13,000  Level Cleveland Center
Wed 12:24:23 PM 42.1433 -81.0222 18° North 198 228 13,000  Level Cleveland Center
Wed 12:25:25 PM 42.1933 -80.9994 19° North 189 217 13,000  Level Cleveland Center
Wed 12:26:27 PM 42.2431 -80.9739 21° North 189 217 13,000 -48 Level Cleveland Center
Wed 12:27:29 PM 42.2950 -80.9506 18° North 193 222 12,900 -48 Descending Cleveland Center
Wed 12:28:32 PM 42.3547 -80.9208 20° North 193 222 12,900 48 Level Cleveland Center
Wed 12:29:34 PM 42.4036 -80.8964 20° North 189 217 13,000  Climbing Cleveland Center
Wed 12:30:36 PM 42.4506 -80.8719 21° North 181 208 12,900 -242 Descending Cleveland Center
Wed 12:31:38 PM 42.5006 -80.8494 18° North 188 216 12,500 -387 Descending Cleveland Center
Wed 12:32:40 PM 42.5522 -80.8239 20° North 192 221 12,100 -484 Descending Cleveland Center
Wed 12:33:42 PM 42.6036 -80.7989 20° North 193 222 11,500 -532 Descending Cleveland Center
Wed 12:34:44 PM 42.6553 -80.7756 18° North 194 223 11,000 -484 Descending Cleveland Center
Wed 12:35:46 PM 42.7144 -80.7456 20° North 193 222 10,500 -532 Descending Cleveland Center
Wed 12:36:48 PM 42.7669 -80.7197 20° North 192 221 9,900 -532 Descending Cleveland Center
Wed 12:37:50 PM 42.8214 -80.6958 18° North 193 222 9,400 -480 Descending Cleveland Center
Wed 12:38:53 PM 42.8689 -80.6708 21° North 192 221 8,900 -504 Descending Cleveland Center
Wed 12:40:01 PM 42.9167 -80.6333 30° Northeast 190 219 8,300 -516 Descending Toronto Center
Wed 12:41:01 PM 42.9667 -80.6167 14° North 190 219 7,800 -550 Descending Toronto Center
Wed 12:42:01 PM 43.0167 -80.5833 26° Northeast 190 219 7,200 -650 Descending Toronto Center
Wed 12:43:01 PM 43.0667 -80.5500 26° Northeast 180 207 6,500 -650 Descending Toronto Center
Wed 12:44:01 PM 43.1167 -80.5167 26° Northeast 180 207 5,900 -600 Descending Toronto Center
Wed 12:45:01 PM 43.1667 -80.5000 14° North 180 207 5,300 -600 Descending Toronto Center
Wed 12:46:01 PM 43.2000 -80.4833 20° North 180 207 4,700 -600 Descending Toronto Center
Wed 12:47:01 PM 43.2500 -80.4500 26° Northeast 180 207 4,100 -350 Descending Toronto Center
Wed 12:48:01 PM 43.3000 -80.4333 14° North 180 207 4,000 -350 Descending Toronto Center
Wed 12:49:01 PM 43.3333 -80.4167 20° North 170 196 3,400 -600 Descending Toronto Center
Wed 12:50:01 PM 43.3833 -80.3833 26° Northeast 170 196 2,800 -550 Descending Toronto Center
Wed 12:51:01 PM 43.4333 -80.3833 360° North 160 184 2,300 -300 Descending Toronto Center
Wed 12:52:01 PM 43.4500 -80.3167 71° East 150 173 2,200 -150 Descending Toronto Center
Wed 12:53:01 PM 43.4667 -80.3000 36° Northeast 130 150 2,000 -200 Descending Toronto Center

Login

Don't have an account? Register now (free) for customized features, flight alerts, and more!